createdAt,value
2017-12-14T00:00:11.263Z,6.10
2017-12-14T00:02:38.721Z,6.10
2017-12-14T00:05:06.897Z,6.10
2017-12-14T00:07:34.364Z,6.10
2017-12-14T00:10:01.932Z,6.10
2017-12-14T00:12:29.437Z,6.10
2017-12-14T00:14:57.351Z,6.10
2017-12-14T00:17:25.308Z,6.10
2017-12-14T00:19:52.765Z,6.10
2017-12-14T00:22:26.295Z,6.00
2017-12-14T00:24:54.091Z,6.00
2017-12-14T00:27:21.645Z,6.00
2017-12-14T00:29:49.540Z,6.00
2017-12-14T00:32:17.076Z,6.00
2017-12-14T00:34:45.247Z,6.00
2017-12-14T00:37:13.889Z,6.10
2017-12-14T00:39:42.552Z,6.10
2017-12-14T00:42:10.632Z,6.10
2017-12-14T00:44:38.289Z,6.10
2017-12-14T00:47:06.502Z,6.10
2017-12-14T00:49:34.725Z,6.00
2017-12-14T00:52:02.539Z,6.00
2017-12-14T00:54:30.020Z,6.00
2017-12-14T00:56:58.008Z,5.90
2017-12-14T00:59:25.485Z,5.90
2017-12-14T01:01:53.082Z,5.90
2017-12-14T01:04:20.638Z,5.90
2017-12-14T01:06:48.159Z,5.90
2017-12-14T01:09:15.626Z,5.90
2017-12-14T01:11:43.543Z,5.80
2017-12-14T01:14:11.328Z,5.90
2017-12-14T01:16:38.800Z,5.80
2017-12-14T01:19:06.305Z,5.80
2017-12-14T01:21:35.005Z,5.80
2017-12-14T01:24:02.668Z,5.80
2017-12-14T01:26:30.673Z,5.80
2017-12-14T01:28:58.758Z,5.80
2017-12-14T01:31:26.195Z,5.80
2017-12-14T01:33:53.743Z,5.80
2017-12-14T01:36:21.303Z,5.80
2017-12-14T01:38:49.280Z,5.80
2017-12-14T01:41:16.740Z,5.80
2017-12-14T01:43:45.423Z,5.80
2017-12-14T01:46:12.857Z,5.70
2017-12-14T01:48:40.754Z,5.70
2017-12-14T01:51:09.381Z,5.70
2017-12-14T01:53:37.672Z,5.70
2017-12-14T01:56:05.130Z,5.70
2017-12-14T01:58:32.687Z,5.70
2017-12-14T02:01:00.131Z,5.60
2017-12-14T02:03:28.043Z,5.60
2017-12-14T02:05:55.502Z,5.60
2017-12-14T02:08:22.951Z,5.60
2017-12-14T02:10:51.022Z,5.60
2017-12-14T02:13:19.037Z,5.60
2017-12-14T02:15:46.873Z,5.60
2017-12-14T02:18:14.353Z,5.60
2017-12-14T02:20:42.569Z,5.60
2017-12-14T02:23:10.032Z,5.60
2017-12-14T02:25:37.808Z,5.60
2017-12-14T02:28:05.256Z,5.60
2017-12-14T02:30:33.089Z,5.50
2017-12-14T02:33:00.558Z,5.50
2017-12-14T02:35:28.461Z,5.50
2017-12-14T02:37:55.938Z,5.50
2017-12-14T02:40:24.701Z,5.50
2017-12-14T02:42:52.177Z,5.50
2017-12-14T02:45:20.016Z,5.50
2017-12-14T02:47:47.854Z,5.60
2017-12-14T02:50:15.281Z,5.60
2017-12-14T02:52:43.717Z,5.60
2017-12-14T02:55:11.168Z,5.50
2017-12-14T02:57:38.657Z,5.60
2017-12-14T03:00:06.127Z,5.50
2017-12-14T03:02:52.139Z,5.60
2017-12-14T03:05:19.950Z,5.50
2017-12-14T03:07:47.922Z,5.50
2017-12-14T03:10:15.380Z,5.50
2017-12-14T03:12:42.977Z,5.50
2017-12-14T03:15:10.864Z,5.50
2017-12-14T03:17:38.297Z,5.50
2017-12-14T03:20:05.750Z,5.50
2017-12-14T03:22:34.522Z,5.50
2017-12-14T03:25:02.971Z,5.50
2017-12-14T03:27:30.426Z,5.50
2017-12-14T03:29:58.513Z,5.50
2017-12-14T03:32:25.938Z,5.50
2017-12-14T03:34:53.894Z,5.50
2017-12-14T03:37:21.351Z,5.50
2017-12-14T03:39:49.152Z,5.50
2017-12-14T03:42:16.649Z,5.60
2017-12-14T03:44:44.089Z,5.60
2017-12-14T03:47:13.048Z,5.60
2017-12-14T03:49:40.925Z,5.50
2017-12-14T03:52:08.385Z,5.60
2017-12-14T03:54:35.881Z,5.60
2017-12-14T03:57:03.700Z,5.60
2017-12-14T03:59:31.150Z,5.60
2017-12-14T04:01:58.613Z,5.60
2017-12-14T04:04:26.072Z,5.60
2017-12-14T04:06:53.513Z,5.60
2017-12-14T04:09:20.978Z,5.50
2017-12-14T04:11:48.428Z,5.60
2017-12-14T04:14:16.306Z,5.60
2017-12-14T04:16:43.751Z,5.60
2017-12-14T04:19:11.224Z,5.60
2017-12-14T04:21:38.669Z,5.60
2017-12-14T04:24:06.645Z,5.60
2017-12-14T04:26:34.516Z,5.60
2017-12-14T04:29:02.345Z,5.60
2017-12-14T04:31:30.241Z,5.60
2017-12-14T04:33:57.997Z,5.50
2017-12-14T04:36:25.450Z,5.50
2017-12-14T04:38:52.896Z,5.50
2017-12-14T04:41:20.414Z,5.50
2017-12-14T04:43:48.627Z,5.40
2017-12-14T04:46:16.720Z,5.40
2017-12-14T04:48:44.730Z,5.30
2017-12-14T04:51:12.525Z,5.20
2017-12-14T04:53:39.960Z,5.20
2017-12-14T04:56:07.711Z,5.10
2017-12-14T04:58:36.101Z,4.90
2017-12-14T05:01:04.026Z,4.90
2017-12-14T05:03:31.482Z,4.90
2017-12-14T05:05:59.001Z,4.80
2017-12-14T05:08:26.645Z,4.70
2017-12-14T05:10:54.092Z,4.60
2017-12-14T05:13:23.145Z,4.40
2017-12-14T05:15:50.738Z,4.40
2017-12-14T05:18:19.048Z,4.10
2017-12-14T05:20:47.019Z,4.10
2017-12-14T05:23:14.500Z,4.10
2017-12-14T05:25:42.031Z,4.00
2017-12-14T05:28:09.509Z,4.00
2017-12-14T05:30:37.260Z,3.90
2017-12-14T05:33:04.961Z,3.80
2017-12-14T05:35:32.704Z,3.80
2017-12-14T05:38:00.778Z,3.70
2017-12-14T05:40:28.275Z,3.70
2017-12-14T05:42:56.553Z,3.60
2017-12-14T05:45:24.043Z,3.60
2017-12-14T05:47:51.825Z,3.60
2017-12-14T05:50:19.493Z,3.60
2017-12-14T05:52:46.924Z,3.60
2017-12-14T05:55:14.397Z,3.60
2017-12-14T05:57:42.368Z,3.50
2017-12-14T06:00:09.828Z,3.50
2017-12-14T06:02:37.280Z,3.50
2017-12-14T06:05:04.869Z,3.40
2017-12-14T06:07:32.373Z,3.40
2017-12-14T06:09:59.813Z,3.40
2017-12-14T06:12:27.278Z,3.40
2017-12-14T06:14:55.528Z,3.40
2017-12-14T06:17:23.765Z,3.40
2017-12-14T06:19:51.485Z,3.40
2017-12-14T06:22:19.303Z,3.30
2017-12-14T06:24:46.761Z,3.20
2017-12-14T06:27:14.712Z,3.20
2017-12-14T06:29:42.683Z,3.20
2017-12-14T06:32:10.215Z,3.10
2017-12-14T06:34:37.672Z,3.10
2017-12-14T06:37:05.129Z,3.10
2017-12-14T06:39:32.729Z,3.10
2017-12-14T06:42:00.178Z,3.10
2017-12-14T06:44:28.197Z,3.10
2017-12-14T06:46:56.232Z,3.20
2017-12-14T06:49:23.806Z,3.30
2017-12-14T06:51:52.143Z,3.30
2017-12-14T06:54:19.588Z,3.20
2017-12-14T06:56:47.082Z,3.30
2017-12-14T06:59:14.936Z,3.20
2017-12-14T07:01:42.369Z,3.20
2017-12-14T07:04:09.861Z,3.20
2017-12-14T07:06:37.501Z,3.20
2017-12-14T07:09:05.029Z,3.20
2017-12-14T07:11:32.840Z,3.20
2017-12-14T07:14:00.996Z,3.20
2017-12-14T07:16:28.443Z,3.20
2017-12-14T07:18:56.426Z,3.20
2017-12-14T07:21:24.198Z,3.10
2017-12-14T07:23:51.685Z,3.10
2017-12-14T07:26:19.931Z,3.20
2017-12-14T07:28:47.780Z,3.20
2017-12-14T07:31:15.564Z,3.20
2017-12-14T07:33:43.020Z,3.20
2017-12-14T07:36:10.535Z,3.20
2017-12-14T07:38:38.021Z,3.30
2017-12-14T07:41:05.561Z,3.30
2017-12-14T07:43:33.009Z,3.30
2017-12-14T07:46:12.578Z,3.40
2017-12-14T07:48:52.395Z,3.40
2017-12-14T07:51:19.856Z,3.50
2017-12-14T07:53:47.306Z,3.50
2017-12-14T07:56:14.799Z,3.70
2017-12-14T07:58:42.679Z,3.70
2017-12-14T08:01:10.184Z,3.80
2017-12-14T08:03:37.746Z,3.80
2017-12-14T08:06:05.524Z,3.80
2017-12-14T08:08:33.370Z,3.90
2017-12-14T08:11:00.973Z,3.90
2017-12-14T08:13:29.435Z,3.90
2017-12-14T08:15:56.973Z,4.00
2017-12-14T08:18:24.434Z,4.00
2017-12-14T08:20:52.015Z,4.00
2017-12-14T08:23:19.485Z,4.10
2017-12-14T08:25:46.926Z,4.10
2017-12-14T08:28:14.698Z,4.10
2017-12-14T08:30:42.731Z,4.10
2017-12-14T08:33:10.295Z,4.10
2017-12-14T08:35:37.993Z,4.20
2017-12-14T08:38:05.464Z,4.20
2017-12-14T08:40:32.903Z,4.30
2017-12-14T08:43:00.626Z,4.30
2017-12-14T08:45:28.085Z,4.30
2017-12-14T08:47:55.953Z,4.30
2017-12-14T08:50:24.332Z,4.40
2017-12-14T08:52:52.021Z,4.40
2017-12-14T08:55:19.566Z,4.40
2017-12-14T08:57:47.013Z,4.40
2017-12-14T09:00:15.104Z,4.40
2017-12-14T09:02:43.154Z,4.40
2017-12-14T09:05:10.604Z,4.50
2017-12-14T09:07:38.376Z,4.50
2017-12-14T09:10:06.688Z,4.50
2017-12-14T09:12:34.126Z,4.50
2017-12-14T09:15:02.166Z,4.50
2017-12-14T09:17:29.935Z,4.50
2017-12-14T09:19:57.432Z,4.50
2017-12-14T09:22:24.991Z,4.50
2017-12-14T09:24:52.538Z,4.50
2017-12-14T09:27:19.969Z,4.50
2017-12-14T09:29:47.963Z,4.50
2017-12-14T09:32:15.412Z,4.50
2017-12-14T09:34:42.946Z,4.60
2017-12-14T09:37:10.740Z,4.60
2017-12-14T09:39:38.196Z,4.60
2017-12-14T09:42:05.759Z,4.60
2017-12-14T09:44:33.208Z,4.60
2017-12-14T09:47:01.412Z,4.60
2017-12-14T09:49:30.345Z,4.60
2017-12-14T09:51:57.904Z,4.60
2017-12-14T09:54:25.361Z,4.70
2017-12-14T09:56:52.786Z,4.70
2017-12-14T09:59:21.738Z,4.70
2017-12-14T10:01:49.203Z,4.70
2017-12-14T10:04:16.668Z,4.70
2017-12-14T10:06:44.133Z,4.70
2017-12-14T10:09:12.568Z,4.70
2017-12-14T10:11:40.004Z,4.60
2017-12-14T10:14:08.016Z,4.60
2017-12-14T10:16:35.474Z,4.60
2017-12-14T10:19:02.939Z,4.60
2017-12-14T10:21:30.412Z,4.60
2017-12-14T10:23:59.049Z,4.50
2017-12-14T10:26:26.495Z,4.50
2017-12-14T10:28:54.491Z,4.50
2017-12-14T10:31:21.956Z,4.40
2017-12-14T10:33:49.439Z,4.40
2017-12-14T10:36:17.675Z,4.30
2017-12-14T10:38:45.845Z,4.30
2017-12-14T10:41:13.617Z,4.30
2017-12-14T10:43:41.063Z,4.20
2017-12-14T10:46:08.530Z,4.20
2017-12-14T10:48:36.697Z,4.10
2017-12-14T10:51:04.501Z,4.10
2017-12-14T10:53:32.789Z,4.00
2017-12-14T10:56:00.250Z,4.00
2017-12-14T10:58:27.680Z,3.90
2017-12-14T11:01:01.782Z,3.90
2017-12-14T11:03:29.213Z,3.90
2017-12-14T11:05:57.029Z,3.90
2017-12-14T11:08:25.232Z,3.90
2017-12-14T11:10:52.742Z,3.90
2017-12-14T11:13:20.963Z,3.90
2017-12-14T11:15:49.160Z,3.90
2017-12-14T11:18:16.606Z,3.90
2017-12-14T11:20:44.093Z,3.80
2017-12-14T11:23:11.543Z,3.70
2017-12-14T11:25:39.064Z,3.70
2017-12-14T11:28:06.525Z,3.70
2017-12-14T11:30:34.321Z,3.70
2017-12-14T11:33:02.258Z,3.70
2017-12-14T11:35:29.707Z,3.80
2017-12-14T11:37:57.528Z,3.80
2017-12-14T11:40:25.955Z,3.80
2017-12-14T11:42:53.406Z,3.70
2017-12-14T11:45:21.104Z,3.70
2017-12-14T11:47:48.984Z,3.60
2017-12-14T11:50:16.445Z,3.50
2017-12-14T11:52:44.521Z,3.50
2017-12-14T11:55:12.767Z,3.40
2017-12-14T11:57:40.313Z,3.40
2017-12-14T12:00:08.710Z,3.40
2017-12-14T12:02:36.350Z,3.40
2017-12-14T12:05:03.851Z,3.40
2017-12-14T12:07:31.278Z,3.50
2017-12-14T12:09:59.086Z,3.40
2017-12-14T12:12:27.368Z,3.50
2017-12-14T12:14:55.389Z,3.50
2017-12-14T12:17:22.825Z,3.50
2017-12-14T12:19:50.969Z,3.50
2017-12-14T12:22:19.573Z,3.60
2017-12-14T12:24:47.021Z,3.60
2017-12-14T12:27:14.516Z,3.70
2017-12-14T12:29:42.397Z,3.80
2017-12-14T12:32:09.838Z,3.90
2017-12-14T12:34:37.325Z,3.90
2017-12-14T12:37:06.204Z,4.10
2017-12-14T12:39:33.678Z,4.00
2017-12-14T12:42:01.512Z,4.10
2017-12-14T12:44:28.979Z,4.10
2017-12-14T12:46:57.421Z,4.20
2017-12-14T12:49:24.893Z,4.20
2017-12-14T12:51:52.334Z,4.20
2017-12-14T12:54:19.904Z,4.30
2017-12-14T12:56:47.361Z,4.30
2017-12-14T12:59:15.001Z,4.40
2017-12-14T13:01:43.276Z,4.30
2017-12-14T13:04:11.041Z,4.30
2017-12-14T13:06:38.599Z,4.30
2017-12-14T13:09:06.373Z,4.20
2017-12-14T13:11:34.536Z,4.30
2017-12-14T13:14:02.666Z,4.20
2017-12-14T13:16:30.945Z,4.30
2017-12-14T13:18:59.178Z,4.30
2017-12-14T13:21:26.619Z,4.30
2017-12-14T13:23:54.078Z,4.30
2017-12-14T13:26:21.589Z,4.40
2017-12-14T13:28:49.654Z,4.30
2017-12-14T13:31:17.102Z,4.30
2017-12-14T13:33:44.536Z,4.30
2017-12-14T13:36:12.176Z,4.30
2017-12-14T13:38:39.984Z,4.40
2017-12-14T13:41:07.430Z,4.40
2017-12-14T13:43:34.928Z,4.40
2017-12-14T13:46:02.381Z,4.50
2017-12-14T13:48:30.401Z,4.60
2017-12-14T13:50:58.074Z,4.60
2017-12-14T13:53:25.545Z,4.60
2017-12-14T13:55:53.025Z,4.60
2017-12-14T13:58:21.352Z,4.80
2017-12-14T14:00:49.435Z,4.80
2017-12-14T14:03:16.886Z,4.80
2017-12-14T14:05:44.355Z,4.80
2017-12-14T14:08:11.830Z,4.90
2017-12-14T14:10:40.054Z,4.90
2017-12-14T14:13:07.876Z,4.90
2017-12-14T14:15:36.847Z,4.90
2017-12-14T14:18:04.305Z,4.90
2017-12-14T14:20:31.815Z,4.90
2017-12-14T14:22:59.284Z,4.90
2017-12-14T14:25:26.757Z,4.90
2017-12-14T14:27:54.288Z,5.00
2017-12-14T14:30:22.184Z,4.90
2017-12-14T14:32:49.971Z,5.00
2017-12-14T14:35:17.426Z,5.00
2017-12-14T14:37:45.296Z,5.00
2017-12-14T14:40:13.523Z,5.10
2017-12-14T14:42:40.961Z,5.10
2017-12-14T14:45:08.441Z,5.10
2017-12-14T14:47:36.217Z,5.10
2017-12-14T14:50:03.789Z,5.20
2017-12-14T14:52:31.766Z,5.20
2017-12-14T14:54:59.237Z,5.20
2017-12-14T14:57:27.554Z,5.20
2017-12-14T14:59:54.997Z,5.20
2017-12-14T15:02:22.498Z,5.20
2017-12-14T15:04:49.901Z,5.20
2017-12-14T15:07:17.519Z,5.20
2017-12-14T15:09:44.960Z,5.20
2017-12-14T15:12:12.905Z,5.20
2017-12-14T15:14:40.904Z,5.20
2017-12-14T15:17:08.364Z,5.10
2017-12-14T15:19:35.807Z,5.10
2017-12-14T15:22:03.279Z,5.10
2017-12-14T15:24:30.745Z,5.10
2017-12-14T15:26:58.210Z,5.10
2017-12-14T15:29:26.165Z,5.10
2017-12-14T15:31:53.626Z,5.10
2017-12-14T15:34:21.065Z,5.00
2017-12-14T15:36:48.533Z,5.00
2017-12-14T15:39:16.461Z,5.00
2017-12-14T15:41:44.273Z,5.00
2017-12-14T15:44:11.730Z,4.90
2017-12-14T15:46:39.341Z,4.90
2017-12-14T15:49:07.342Z,4.90
2017-12-14T15:51:34.791Z,4.90
2017-12-14T15:54:02.255Z,4.90
2017-12-14T15:56:29.700Z,4.90
2017-12-14T15:58:57.184Z,4.90
2017-12-14T16:01:24.676Z,4.80
2017-12-14T16:03:52.950Z,4.70
2017-12-14T16:06:21.153Z,4.70
2017-12-14T16:08:48.678Z,4.70
2017-12-14T16:11:16.690Z,4.70
2017-12-14T16:13:44.778Z,4.60
2017-12-14T16:16:12.233Z,4.70
2017-12-14T16:18:39.757Z,4.70
2017-12-14T16:21:07.759Z,4.70
2017-12-14T16:23:35.281Z,4.70
2017-12-14T16:26:02.738Z,4.80
2017-12-14T16:28:30.901Z,4.80
2017-12-14T16:30:59.645Z,4.80
2017-12-14T16:33:27.390Z,4.80
2017-12-14T16:35:54.816Z,4.80
2017-12-14T16:38:22.738Z,4.80
2017-12-14T16:40:50.213Z,4.80
2017-12-14T16:43:18.420Z,4.80
2017-12-14T16:45:45.941Z,4.80
2017-12-14T16:48:14.600Z,4.80
2017-12-14T16:50:42.060Z,4.80
2017-12-14T16:53:09.598Z,4.80
2017-12-14T16:55:37.037Z,4.80
2017-12-14T16:58:04.825Z,4.80
2017-12-14T17:00:32.301Z,4.80
2017-12-14T17:02:59.741Z,4.80
2017-12-14T17:05:27.316Z,4.90
2017-12-14T17:07:54.764Z,4.80
2017-12-14T17:10:22.221Z,4.90
2017-12-14T17:12:49.841Z,4.90
2017-12-14T17:15:17.760Z,4.90
2017-12-14T17:17:45.201Z,4.90
2017-12-14T17:20:12.644Z,4.80
2017-12-14T17:22:40.509Z,4.80
2017-12-14T17:25:08.042Z,4.80
2017-12-14T17:27:36.010Z,4.90
2017-12-14T17:30:04.080Z,4.90
2017-12-14T17:32:31.530Z,4.90
2017-12-14T17:34:59.095Z,4.90
2017-12-14T17:37:26.788Z,4.90
2017-12-14T17:39:54.668Z,4.90
2017-12-14T17:42:22.214Z,4.90
2017-12-14T17:44:49.738Z,4.90
2017-12-14T17:47:18.050Z,4.90
2017-12-14T17:49:45.500Z,4.90
2017-12-14T17:52:13.281Z,4.90
2017-12-14T17:54:40.730Z,4.90
2017-12-14T17:57:08.222Z,4.90
2017-12-14T17:59:36.427Z,4.90
2017-12-14T18:02:04.149Z,4.90
2017-12-14T18:04:32.385Z,4.90
2017-12-14T18:07:00.065Z,4.90
2017-12-14T18:09:27.630Z,4.90
2017-12-14T18:11:55.722Z,4.90
2017-12-14T18:14:24.575Z,4.90
2017-12-14T18:16:52.035Z,4.90
2017-12-14T18:19:19.894Z,4.90
2017-12-14T18:21:47.349Z,4.90
2017-12-14T18:24:14.802Z,4.90
2017-12-14T18:26:42.303Z,4.90
2017-12-14T18:29:11.024Z,4.90
2017-12-14T18:31:38.497Z,4.90
2017-12-14T18:34:05.953Z,4.90
2017-12-14T18:36:33.430Z,5.00
2017-12-14T18:39:01.207Z,5.00
2017-12-14T18:41:28.671Z,5.10
2017-12-14T18:43:56.961Z,5.10
2017-12-14T18:46:25.183Z,5.10
2017-12-14T18:48:53.158Z,5.10
2017-12-14T18:51:21.234Z,5.10
2017-12-14T18:53:48.979Z,5.20
2017-12-14T18:56:16.431Z,5.10
2017-12-14T18:58:43.894Z,5.20
2017-12-14T19:01:12.152Z,5.20
2017-12-14T19:03:40.304Z,5.20
2017-12-14T19:06:07.926Z,5.20
2017-12-14T19:08:35.441Z,5.20
2017-12-14T19:11:03.242Z,5.30
2017-12-14T19:13:31.264Z,5.30
2017-12-14T19:15:58.757Z,5.30
2017-12-14T19:18:26.241Z,5.40
2017-12-14T19:20:53.727Z,5.40
2017-12-14T19:23:21.176Z,5.40
2017-12-14T19:25:49.414Z,5.40
2017-12-14T19:28:16.939Z,5.40
2017-12-14T19:30:44.904Z,5.40
2017-12-14T19:33:12.374Z,5.40
2017-12-14T19:35:39.816Z,5.50
2017-12-14T19:38:07.722Z,5.50
2017-12-14T19:40:35.663Z,5.50
2017-12-14T19:43:03.164Z,5.50
2017-12-14T19:45:31.472Z,5.50
2017-12-14T19:48:00.276Z,5.40
2017-12-14T19:50:27.836Z,5.40
2017-12-14T19:52:55.741Z,5.40
2017-12-14T19:55:23.214Z,5.40
2017-12-14T19:57:50.700Z,5.40
2017-12-14T20:00:18.515Z,5.30
2017-12-14T20:02:45.982Z,5.30
2017-12-14T20:05:13.906Z,5.40
2017-12-14T20:07:41.370Z,5.30
2017-12-14T20:10:08.882Z,5.30
2017-12-14T20:12:37.136Z,5.30
2017-12-14T20:15:05.001Z,5.30
2017-12-14T20:17:32.516Z,5.30
2017-12-14T20:20:00.116Z,5.30
2017-12-14T20:22:27.601Z,5.20
2017-12-14T20:24:55.941Z,5.20
2017-12-14T20:27:23.414Z,5.20
2017-12-14T20:29:51.207Z,5.20
2017-12-14T20:32:18.820Z,5.10
2017-12-14T20:34:46.268Z,5.10
2017-12-14T20:37:14.218Z,5.10
2017-12-14T20:39:41.977Z,5.10
2017-12-14T20:42:09.565Z,5.10
2017-12-14T20:44:38.790Z,5.00
2017-12-14T20:47:06.753Z,5.00
2017-12-14T20:49:34.260Z,5.10
2017-12-14T20:52:01.820Z,5.10
2017-12-14T20:54:29.279Z,5.10
2017-12-14T20:56:56.726Z,5.20
2017-12-14T20:59:24.441Z,5.20
2017-12-14T21:01:52.301Z,5.20
2017-12-14T21:04:19.819Z,5.20
2017-12-14T21:06:47.292Z,5.10
2017-12-14T21:09:14.758Z,5.20
2017-12-14T21:11:42.282Z,5.20
2017-12-14T21:14:10.362Z,5.20
2017-12-14T21:16:37.830Z,5.20
2017-12-14T21:19:05.313Z,5.20
2017-12-14T21:21:32.786Z,5.30
2017-12-14T21:24:01.107Z,5.30
2017-12-14T21:26:28.560Z,5.20
2017-12-14T21:28:56.471Z,5.30
2017-12-14T21:31:24.011Z,5.30
2017-12-14T21:33:51.814Z,5.30
2017-12-14T21:36:19.289Z,5.40
2017-12-14T21:38:47.955Z,5.40
2017-12-14T21:41:15.795Z,5.40
2017-12-14T21:43:43.683Z,5.40
2017-12-14T21:46:11.133Z,5.50
2017-12-14T21:48:39.057Z,5.50
2017-12-14T21:51:06.949Z,5.50
2017-12-14T21:53:34.749Z,5.50
2017-12-14T21:56:02.229Z,5.50
2017-12-14T21:58:29.682Z,5.50
2017-12-14T22:00:58.062Z,5.50
2017-12-14T22:03:26.265Z,5.50
2017-12-14T22:05:53.745Z,5.50
2017-12-14T22:08:21.250Z,5.50
2017-12-14T22:10:48.729Z,5.50
2017-12-14T22:13:16.188Z,5.50
2017-12-14T22:15:44.212Z,5.50
2017-12-14T22:18:12.178Z,5.50
2017-12-14T22:20:40.103Z,5.40
2017-12-14T22:23:08.387Z,5.50
2017-12-14T22:25:36.207Z,5.50
2017-12-14T22:28:03.692Z,5.40
2017-12-14T22:30:32.318Z,5.50
2017-12-14T22:32:59.849Z,5.50
2017-12-14T22:35:27.408Z,5.40
2017-12-14T22:37:54.837Z,5.40
2017-12-14T22:40:23.404Z,5.30
2017-12-14T22:42:51.991Z,5.30
2017-12-14T22:45:19.721Z,5.30
2017-12-14T22:47:47.733Z,5.30
2017-12-14T22:50:15.958Z,5.20
2017-12-14T22:52:43.407Z,5.20
2017-12-14T22:55:11.158Z,5.20
2017-12-14T22:57:38.594Z,5.20
2017-12-14T23:00:06.061Z,5.20
2017-12-14T23:02:33.522Z,5.20
2017-12-14T23:05:01.082Z,5.30
2017-12-14T23:07:28.535Z,5.30
2017-12-14T23:09:56.309Z,5.40
2017-12-14T23:12:23.747Z,5.40
2017-12-14T23:14:51.632Z,5.40
2017-12-14T23:17:19.108Z,5.40
2017-12-14T23:19:47.190Z,5.40
2017-12-14T23:22:14.657Z,5.40
2017-12-14T23:24:42.126Z,5.30
2017-12-14T23:27:10.345Z,5.20
2017-12-14T23:29:38.237Z,5.20
2017-12-14T23:32:05.697Z,5.10
2017-12-14T23:34:33.145Z,5.10
2017-12-14T23:37:00.845Z,5.00
2017-12-14T23:39:29.858Z,5.00
2017-12-14T23:41:57.785Z,5.00
2017-12-14T23:44:26.366Z,4.90
2017-12-14T23:46:53.811Z,4.90
2017-12-14T23:49:21.773Z,4.90
2017-12-14T23:51:49.413Z,4.90
2017-12-14T23:54:16.970Z,4.90
2017-12-14T23:56:44.457Z,4.90
2017-12-14T23:59:11.986Z,4.80
